Time;durP1;ratioP1;P1;durP2;ratioP2;P2;SDS_P1;SDS_P2;PMS_P1;PMS_P2;Temp;Humidity;BMP_temperature;BMP_pressure;BME280_temperature;BME280_humidity;BME280_pressure;Samples;Min_cycle;Max_cycle;Signal;HPM_P1;HPM_P2
2023/12/09 00:00:49;;;;;;;11.43;2.53;;;7.40;99.90;;;;;;4976214;23;20167;-95
2023/12/09 00:02:49;;;;;;;3.60;1.83;;;7.40;99.90;;;;;;4976055;23;20148;-94
2023/12/09 00:04:50;;;;;;;5.60;1.08;;;7.40;99.90;;;;;;4976548;23;20204;-96
2023/12/09 00:06:51;;;;;;;6.07;1.98;;;7.40;99.90;;;;;;4976161;23;20153;-95
2023/12/09 00:08:52;;;;;;;10.17;2.20;;;7.40;99.90;;;;;;4976205;23;20610;-93
2023/12/09 00:10:53;;;;;;;11.45;2.05;;;7.30;99.90;;;;;;4976026;23;20184;-95
2023/12/09 00:12:54;;;;;;;11.45;2.60;;;7.40;99.90;;;;;;4999734;23;20170;-95
2023/12/09 00:14:55;;;;;;;6.10;1.47;;;7.40;99.90;;;;;;4988344;23;20257;-95
2023/12/09 00:17:01;;;;;;;8.30;1.88;;;7.30;99.90;;;;;;5002650;23;20163;-94
2023/12/09 00:19:02;;;;;;;11.80;1.50;;;7.30;99.90;;;;;;4979817;23;20148;-96
2023/12/09 00:21:07;;;;;;;13.60;2.10;;;7.30;99.90;;;;;;5003475;23;20159;-96
2023/12/09 00:23:18;;;;;;;13.40;1.67;;;7.30;99.90;;;;;;4982707;23;20164;-96
2023/12/09 00:25:27;;;;;;;6.45;0.95;;;7.40;99.90;;;;;;4979335;23;20176;-94
2023/12/09 00:27:46;;;;;;;14.53;2.50;;;7.40;99.90;;;;;;4981108;23;20152;-96
2023/12/09 00:30:02;;;;;;;12.38;1.40;;;7.30;99.90;;;;;;4980603;23;20212;-96
2023/12/09 00:32:03;;;;;;;5.80;2.27;;;7.30;99.90;;;;;;5002491;23;20186;-95
2023/12/09 00:34:04;;;;;;;13.13;2.57;;;7.30;99.90;;;;;;4981696;23;20148;-96
2023/12/09 00:36:08;;;;;;;6.67;1.67;;;7.30;99.90;;;;;;4979757;23;20221;-96
2023/12/09 00:38:21;;;;;;;19.08;2.13;;;7.30;99.90;;;;;;5006584;23;20156;-96
2023/12/09 00:40:38;;;;;;;3.27;1.07;;;7.20;99.90;;;;;;4983593;23;20152;-95
2023/12/09 00:42:44;;;;;;;5.37;1.30;;;7.30;99.90;;;;;;4978739;23;20164;-96
2023/12/09 00:45:26;;;;;;;4.15;1.70;;;7.30;99.90;;;;;;5006455;23;20183;-96
2023/12/09 00:47:37;;;;;;;13.82;1.55;;;7.20;99.90;;;;;;4984396;23;20168;-95
2023/12/09 00:50:08;;;;;;;;;;;;;;;;;;;;;
2023/12/09 00:52:20;;;;;;;6.30;1.23;;;7.20;99.90;;;;;;5012209;23;20171;-96
2023/12/09 00:54:22;;;;;;;11.77;2.75;;;7.20;99.90;;;;;;5006692;23;20171;-96
2023/12/09 00:56:51;;;;;;;7.03;2.20;;;7.10;99.90;;;;;;5013362;23;20231;-96
2023/12/09 00:59:15;;;;;;;5.73;1.33;;;7.10;99.90;;;;;;5010205;23;20155;-95
2023/12/09 01:02:05;;;;;;;7.22;1.33;;;7.10;99.90;;;;;;4982942;23;20172;-95
2023/12/09 01:04:22;;;;;;;15.23;2.13;;;7.10;99.90;;;;;;5000052;23;20175;-95
2023/12/09 01:06:32;;;;;;;4.97;1.92;;;7.10;99.90;;;;;;4981001;23;20192;-96
2023/12/09 01:08:45;;;;;;;13.17;1.97;;;7.00;99.90;;;;;;5003616;23;20167;-96
2023/12/09 01:11:10;;;;;;;7.78;1.02;;;7.00;99.90;;;;;;4981668;23;20195;-96
2023/12/09 01:13:20;;;;;;;6.57;2.53;;;7.00;99.90;;;;;;4982289;23;20649;-95
2023/12/09 01:15:54;;;;;;;8.63;1.13;;;7.00;99.90;;;;;;5003643;23;20175;-95
2023/12/09 01:18:02;;;;;;;8.70;1.38;;;7.00;99.90;;;;;;4982246;23;20156;-96
2023/12/09 01:20:15;;;;;;;18.45;2.17;;;6.90;99.90;;;;;;5003964;23;20182;-96
2023/12/09 01:22:25;;;;;;;9.20;1.77;;;6.90;99.90;;;;;;4977001;23;20193;-96
2023/12/09 01:24:47;;;;;;;3.87;1.33;;;6.90;99.90;;;;;;5006489;23;20223;-96
2023/12/09 01:27:11;;;;;;;4.88;1.40;;;6.90;99.90;;;;;;4979456;23;20156;-96
2023/12/09 01:29:16;;;;;;;9.82;2.35;;;6.90;99.90;;;;;;4982078;23;20156;-96
2023/12/09 01:31:17;;;;;;;7.43;1.45;;;6.90;99.90;;;;;;4984880;23;20200;-96
2023/12/09 01:33:45;;;;;;;14.65;3.22;;;7.00;99.90;;;;;;5006644;23;20151;-96
2023/12/09 01:35:49;;;;;;;14.30;1.67;;;6.90;99.90;;;;;;5002271;23;20183;-96
2023/12/09 01:38:00;;;;;;;17.83;2.67;;;7.10;99.90;;;;;;5004562;23;20232;-95
2023/12/09 01:40:07;;;;;;;4.47;2.07;;;7.10;99.90;;;;;;4979896;23;20604;-96
2023/12/09 01:42:13;;;;;;;13.85;3.13;;;7.00;99.90;;;;;;4979977;23;20164;-95
2023/12/09 01:44:14;;;;;;;4.00;1.70;;;7.00;99.90;;;;;;5001290;23;20179;-95
2023/12/09 01:46:17;;;;;;;6.57;2.25;;;6.90;99.90;;;;;;4978732;23;20243;-95
2023/12/09 01:48:18;;;;;;;13.80;2.27;;;6.90;99.90;;;;;;5028887;23;20155;-96
2023/12/09 01:50:26;;;;;;;18.08;3.42;;;6.90;99.90;;;;;;5005622;23;20183;-95
2023/12/09 01:52:31;;;;;;;5.50;1.67;;;6.90;99.90;;;;;;4981012;23;20193;-96
2023/12/09 01:54:35;;;;;;;11.67;1.77;;;6.90;99.90;;;;;;5002148;23;20203;-96
2023/12/09 01:56:36;;;;;;;8.10;1.63;;;7.00;99.90;;;;;;5001818;23;20159;-96
2023/12/09 01:58:38;;;;;;;7.80;2.17;;;7.00;99.90;;;;;;4977829;23;20156;-95
2023/12/09 02:00:59;;;;;;;9.80;2.60;;;7.00;99.90;;;;;;4981370;23;20168;-95
2023/12/09 02:03:07;;;;;;;7.30;2.28;;;7.00;99.90;;;;;;5004254;23;20162;-96
2023/12/09 02:05:11;;;;;;;12.23;3.03;;;7.10;99.90;;;;;;5000530;23;20307;-96
2023/12/09 02:07:24;;;;;;;3.17;1.57;;;7.10;99.90;;;;;;4979436;23;20152;-96
2023/12/09 02:09:42;;;;;;;9.13;2.40;;;7.10;99.90;;;;;;5003610;23;20614;-96
2023/12/09 02:12:00;;;;;;;6.20;2.10;;;7.10;99.90;;;;;;5005400;23;20630;-96
2023/12/09 02:14:13;;;;;;;5.97;2.33;;;7.10;99.90;;;;;;5003065;23;20147;-96
2023/12/09 02:16:33;;;;;;;14.50;2.40;;;7.20;99.90;;;;;;4978620;23;20615;-96
2023/12/09 02:19:02;;;;;;;8.00;3.03;;;7.10;99.90;;;;;;5002541;23;20215;-94
2023/12/09 02:21:08;;;;;;;15.35;2.70;;;7.10;99.90;;;;;;5025963;23;20677;-96
2023/12/09 02:23:22;;;;;;;4.37;2.07;;;6.90;99.90;;;;;;5002952;23;20160;-95
2023/12/09 02:25:32;;;;;;;11.40;2.43;;;6.80;99.90;;;;;;4992693;23;20183;-96
2023/12/09 02:27:57;;;;;;;9.07;2.77;;;6.80;99.90;;;;;;5003356;23;20155;-96
2023/12/09 02:30:11;;;;;;;8.87;2.30;;;6.70;99.90;;;;;;4977550;23;20188;-95
2023/12/09 02:32:20;;;;;;;8.93;2.93;;;6.70;99.90;;;;;;5004261;23;20155;-96
2023/12/09 02:34:42;;;;;;;;;;;;;;;;;;;;;
2023/12/09 02:36:45;;;;;;;14.77;3.17;;;6.60;99.90;;;;;;5026580;23;20479;-96
2023/12/09 02:38:48;;;;;;;14.57;2.63;;;6.70;99.90;;;;;;5004319;23;20179;-95
2023/12/09 02:40:52;;;;;;;11.17;3.23;;;6.70;99.90;;;;;;4980310;23;20153;-96
2023/12/09 02:42:57;;;;;;;10.27;3.10;;;6.70;99.90;;;;;;5027062;23;20159;-94
2023/12/09 02:44:58;;;;;;;12.93;2.87;;;6.80;99.90;;;;;;5003485;23;20186;-95
2023/12/09 02:47:17;;;;;;;13.60;3.97;;;6.80;99.90;;;;;;5002419;23;20156;-95
2023/12/09 02:49:23;;;;;;;17.97;3.53;;;6.80;99.90;;;;;;5003066;23;20198;-96
2023/12/09 02:51:33;;;;;;;7.80;2.90;;;6.80;99.90;;;;;;4981250;23;20217;-96
2023/12/09 02:53:54;;;;;;;7.73;3.23;;;6.80;99.90;;;;;;5002167;23;20175;-95
2023/12/09 02:55:58;;;;;;;18.50;4.60;;;6.90;99.90;;;;;;5002636;23;20156;-96
2023/12/09 02:58:17;;;;;;;17.73;5.32;;;6.80;99.90;;;;;;4979663;23;20239;-94
2023/12/09 03:00:21;;;;;;;14.30;3.60;;;6.90;99.90;;;;;;4979602;23;20507;-96
2023/12/09 03:02:22;;;;;;;7.17;3.13;;;6.90;99.90;;;;;;4999340;23;20183;-95
2023/12/09 03:04:28;;;;;;;12.13;4.93;;;6.90;99.90;;;;;;4978169;23;20175;-96
2023/12/09 03:06:29;;;;;;;9.50;3.37;;;6.80;99.90;;;;;;5025610;23;20158;-96
2023/12/09 03:08:36;;;;;;;7.87;3.23;;;6.90;99.90;;;;;;5002273;23;20155;-95
2023/12/09 03:10:46;;;;;;;16.30;4.27;;;6.80;99.90;;;;;;4976910;23;20199;-95
2023/12/09 03:12:47;;;;;;;14.52;2.38;;;6.70;99.90;;;;;;4976592;23;20167;-96
2023/12/09 03:14:52;;;;;;;15.07;3.87;;;6.60;99.90;;;;;;5001079;23;20644;-95
2023/12/09 03:16:58;;;;;;;8.93;2.90;;;6.60;99.90;;;;;;4976960;23;20188;-94
2023/12/09 03:18:59;;;;;;;14.10;3.37;;;6.70;99.90;;;;;;4977453;23;20156;-96
2023/12/09 03:20:59;;;;;;;11.40;3.80;;;6.70;99.90;;;;;;5000132;23;20179;-95
2023/12/09 03:23:00;;;;;;;16.07;3.27;;;6.70;99.90;;;;;;4978398;23;20196;-95
2023/12/09 03:25:02;;;;;;;13.07;4.07;;;6.80;99.90;;;;;;4977327;23;20247;-96
2023/12/09 03:27:04;;;;;;;17.50;4.27;;;6.90;99.90;;;;;;5001250;23;20159;-95
2023/12/09 03:29:10;;;;;;;16.13;4.07;;;6.90;99.90;;;;;;4976273;23;20235;-95
2023/12/09 03:31:15;;;;;;;11.37;3.37;;;7.10;99.90;;;;;;5000425;23;20545;-96
2023/12/09 03:33:16;;;;;;;22.00;3.90;;;7.10;99.90;;;;;;4976710;23;20148;-94
2023/12/09 03:35:20;;;;;;;4.87;2.53;;;7.00;99.90;;;;;;4999749;23;20188;-94
2023/12/09 03:37:21;;;;;;;18.50;3.20;;;7.20;99.90;;;;;;4976951;23;20163;-95
2023/12/09 03:39:25;;;;;;;11.87;5.10;;;7.20;99.90;;;;;;4999023;23;20542;-95
2023/12/09 03:41:29;;;;;;;10.63;4.25;;;7.20;99.90;;;;;;5024374;23;20181;-95
2023/12/09 03:43:31;;;;;;;10.32;3.25;;;7.20;99.90;;;;;;4977237;23;20239;-95
2023/12/09 03:45:40;;;;;;;16.15;4.28;;;7.20;99.90;;;;;;4977384;23;20607;-95
2023/12/09 03:47:48;;;;;;;15.53;4.10;;;7.30;99.90;;;;;;5000315;23;20159;-94
2023/12/09 03:49:49;;;;;;;4.97;2.53;;;7.20;99.90;;;;;;5000838;23;20502;-95
2023/12/09 03:51:59;;;;;;;7.47;3.93;;;7.20;99.90;;;;;;5000485;23;20250;-94
2023/12/09 03:54:03;;;;;;;13.30;3.80;;;7.30;99.90;;;;;;4977663;23;20179;-94
2023/12/09 03:56:05;;;;;;;9.07;4.33;;;7.20;99.90;;;;;;4932928;23;20162;-95
2023/12/09 03:58:06;;;;;;;21.97;5.00;;;7.20;99.90;;;;;;4977655;23;20152;-95
2023/12/09 04:00:08;;;;;;;14.43;4.28;;;7.30;99.90;;;;;;4978569;23;20265;-95
2023/12/09 04:02:09;;;;;;;15.37;5.43;;;7.30;99.90;;;;;;4981513;23;20152;-94
2023/12/09 04:04:10;;;;;;;11.90;3.43;;;7.30;99.90;;;;;;4978338;23;20206;-94
2023/12/09 04:06:17;;;;;;;8.50;3.03;;;7.40;99.90;;;;;;5003975;23;20156;-95
2023/12/09 04:08:21;;;;;;;32.80;3.53;;;7.30;99.90;;;;;;4977897;23;20167;-94
2023/12/09 04:10:22;;;;;;;14.10;3.70;;;7.40;99.90;;;;;;5002004;23;20180;-95
2023/12/09 04:12:32;;;;;;;10.87;3.67;;;7.20;99.90;;;;;;5001450;23;20699;-95
2023/12/09 04:14:33;;;;;;;20.70;5.20;;;7.20;99.90;;;;;;5002302;23;20206;-96
2023/12/09 04:16:34;;;;;;;10.23;3.57;;;7.20;99.90;;;;;;5001994;23;20148;-96
2023/12/09 04:18:38;;;;;;;6.30;3.20;;;7.30;99.90;;;;;;5002103;23;20152;-96
2023/12/09 04:20:47;;;;;;;6.30;3.33;;;7.30;99.90;;;;;;4978274;23;20584;-95
2023/12/09 04:22:48;;;;;;;16.40;3.80;;;7.40;99.90;;;;;;4977349;23;20224;-95
2023/12/09 04:24:49;;;;;;;13.87;3.40;;;7.40;99.90;;;;;;5000640;23;20571;-95
2023/12/09 04:26:51;;;;;;;30.20;6.18;;;7.60;99.90;;;;;;4978508;23;20157;-94
2023/12/09 04:28:57;;;;;;;13.35;3.92;;;7.60;99.90;;;;;;4979564;23;20202;-96
2023/12/09 04:30:58;;;;;;;10.65;4.05;;;7.50;99.90;;;;;;4978624;23;20207;-95
2023/12/09 04:33:07;;;;;;;13.18;4.90;;;7.60;99.90;;;;;;4978241;23;20156;-94
2023/12/09 04:35:15;;;;;;;13.87;4.67;;;7.60;99.90;;;;;;4979132;23;20172;-95
2023/12/09 04:37:19;;;;;;;10.00;4.00;;;7.70;99.90;;;;;;4980263;23;20180;-94
2023/12/09 04:39:35;;;;;;;12.98;4.30;;;7.70;99.90;;;;;;4979808;23;20172;-95
2023/12/09 04:41:43;;;;;;;9.38;3.55;;;7.80;99.90;;;;;;5025544;23;20194;-95
2023/12/09 04:43:44;;;;;;;18.20;3.42;;;7.80;99.90;;;;;;4978306;23;20151;-95
2023/12/09 04:45:45;;;;;;;8.85;3.33;;;7.80;99.90;;;;;;5000804;23;20258;-95
2023/12/09 04:47:51;;;;;;;7.95;2.90;;;7.80;99.90;;;;;;4978945;23;20157;-95
2023/12/09 04:49:57;;;;;;;22.58;4.90;;;7.80;99.90;;;;;;4977831;23;20555;-94
2023/12/09 04:52:00;;;;;;;19.08;3.03;;;7.80;99.90;;;;;;5001276;23;20194;-95
2023/12/09 04:54:12;;;;;;;9.30;3.92;;;7.80;99.90;;;;;;4977737;23;20627;-95
2023/12/09 04:56:17;;;;;;;3.42;2.22;;;7.90;99.90;;;;;;5000028;23;20197;-95
2023/12/09 04:58:23;;;;;;;11.07;2.58;;;7.90;99.90;;;;;;4999909;23;20159;-93
2023/12/09 05:00:40;;;;;;;6.25;3.35;;;7.90;99.90;;;;;;5023067;23;20167;-94
2023/12/09 05:02:41;;;;;;;17.42;3.38;;;8.00;99.90;;;;;;4970110;23;20212;-94
2023/12/09 05:04:51;;;;;;;16.23;4.32;;;8.20;99.90;;;;;;5000376;23;20171;-94
2023/12/09 05:06:55;;;;;;;18.20;3.13;;;8.10;99.90;;;;;;4975971;23;20152;-96
2023/12/09 05:08:58;;;;;;;8.43;2.63;;;8.00;99.90;;;;;;4975856;23;20160;-93
2023/12/09 05:11:02;;;;;;;18.20;3.88;;;8.10;99.90;;;;;;4976557;23;20532;-95
2023/12/09 05:13:05;;;;;;;10.77;2.25;;;8.10;99.90;;;;;;5001713;23;20160;-96
2023/12/09 05:15:16;;;;;;;6.85;2.45;;;8.20;99.90;;;;;;5002027;23;20179;-94
2023/12/09 05:17:17;;;;;;;13.35;3.60;;;8.20;99.90;;;;;;5000306;23;20610;-95
2023/12/09 05:19:23;;;;;;;7.10;2.75;;;8.10;99.90;;;;;;4976527;23;20156;-93
2023/12/09 05:21:25;;;;;;;15.13;4.53;;;8.10;99.90;;;;;;4964840;23;20197;-95
2023/12/09 05:23:31;;;;;;;11.52;2.85;;;8.10;99.90;;;;;;5001590;23;20160;-94
2023/12/09 05:25:34;;;;;;;14.57;3.83;;;8.10;99.90;;;;;;5001797;23;20171;-95
2023/12/09 05:27:38;;;;;;;20.85;3.65;;;8.10;99.90;;;;;;4999552;23;20227;-94
2023/12/09 05:29:43;;;;;;;11.70;3.53;;;8.20;99.90;;;;;;5000650;23;20155;-96
2023/12/09 05:31:53;;;;;;;9.50;3.90;;;8.20;99.90;;;;;;4975565;23;20195;-95
2023/12/09 05:33:57;;;;;;;12.30;2.78;;;8.20;99.90;;;;;;5000387;23;20158;-95
2023/12/09 05:36:08;;;;;;;12.85;3.90;;;8.10;99.90;;;;;;4999050;23;20183;-94
2023/12/09 05:38:09;;;;;;;12.65;4.97;;;8.10;99.90;;;;;;4974884;23;20156;-95
2023/12/09 05:40:13;;;;;;;13.68;2.78;;;8.10;99.90;;;;;;4998355;23;20216;-94
2023/12/09 05:42:14;;;;;;;10.93;3.03;;;8.20;99.90;;;;;;4998717;23;20252;-95
2023/12/09 05:44:27;;;;;;;13.93;3.60;;;8.20;99.90;;;;;;4975244;23;20176;-94
2023/12/09 05:46:31;;;;;;;13.23;4.18;;;8.20;99.90;;;;;;4976516;23;20156;-96
2023/12/09 05:48:38;;;;;;;11.52;2.78;;;8.10;99.90;;;;;;4974838;23;20532;-93
2023/12/09 05:50:39;;;;;;;11.00;3.53;;;8.20;99.90;;;;;;4998861;23;20188;-95
2023/12/09 05:52:44;;;;;;;34.97;5.47;;;8.30;99.90;;;;;;5022338;23;20217;-95
2023/12/09 05:54:56;;;;;;;6.93;2.65;;;8.40;99.90;;;;;;4975769;23;20175;-94
2023/12/09 05:57:00;;;;;;;9.65;3.20;;;8.40;99.90;;;;;;5024345;23;20151;-95
2023/12/09 05:59:09;;;;;;;4.25;2.20;;;8.30;99.90;;;;;;5024602;23;20155;-94
2023/12/09 06:01:10;;;;;;;13.25;2.65;;;8.20;99.90;;;;;;4975340;23;20171;-94
2023/12/09 06:03:19;;;;;;;12.73;3.38;;;8.20;99.90;;;;;;4997913;23;20151;-94
2023/12/09 06:05:27;;;;;;;5.82;2.25;;;8.20;99.90;;;;;;5022730;23;20174;-95
2023/12/09 06:07:42;;;;;;;8.00;2.28;;;8.40;99.90;;;;;;4976189;23;20156;-94
2023/12/09 06:09:58;;;;;;;;;;;;;;;;;;;;;
2023/12/09 06:12:09;;;;;;;9.45;2.67;;;8.30;99.90;;;;;;5023126;23;20165;-94
2023/12/09 06:14:15;;;;;;;15.13;2.78;;;8.30;99.90;;;;;;4975541;23;20176;-95
2023/12/09 06:16:18;;;;;;;11.30;2.75;;;8.40;99.90;;;;;;4975450;23;20155;-95
2023/12/09 06:18:30;;;;;;;3.72;1.80;;;8.50;99.90;;;;;;4999423;23;20167;-96
2023/12/09 06:20:33;;;;;;;5.07;2.10;;;8.50;99.90;;;;;;4998786;23;20162;-95
2023/12/09 06:22:43;;;;;;;6.07;1.92;;;8.50;99.90;;;;;;4976068;23;20180;-95
2023/12/09 06:24:44;;;;;;;5.80;2.20;;;8.50;99.90;;;;;;4974708;23;20284;-94
2023/12/09 06:26:45;;;;;;;11.57;2.92;;;8.60;99.90;;;;;;4998557;23;20151;-95
2023/12/09 06:28:46;;;;;;;10.27;3.33;;;8.70;99.90;;;;;;4998816;23;20230;-94
2023/12/09 06:30:52;;;;;;;7.45;2.03;;;8.80;99.90;;;;;;4974797;23;20215;-95
2023/12/09 06:33:06;;;;;;;6.15;2.30;;;8.90;99.90;;;;;;4998067;23;20518;-94
2023/12/09 06:35:07;;;;;;;5.05;1.88;;;8.90;99.90;;;;;;4974859;23;20180;-96
2023/12/09 06:37:08;;;;;;;5.78;1.48;;;8.80;99.90;;;;;;4975248;23;20607;-94
2023/12/09 06:39:12;;;;;;;7.32;2.05;;;8.70;99.90;;;;;;4999749;23;20496;-95
2023/12/09 06:41:13;;;;;;;5.07;1.77;;;8.60;99.90;;;;;;4975886;23;20159;-94
2023/12/09 06:43:17;;;;;;;7.10;1.55;;;8.60;99.90;;;;;;4975246;23;20160;-95
2023/12/09 06:45:21;;;;;;;2.72;1.40;;;8.60;99.90;;;;;;4998871;23;20174;-94
2023/12/09 06:47:25;;;;;;;5.35;1.33;;;8.60;99.90;;;;;;4975822;23;20227;-95
2023/12/09 06:49:26;;;;;;;3.72;1.38;;;8.50;99.90;;;;;;4977909;23;20151;-94
2023/12/09 06:51:30;;;;;;;7.80;1.92;;;8.50;99.90;;;;;;5022323;23;20190;-96
2023/12/09 06:53:37;;;;;;;10.88;2.50;;;8.50;99.90;;;;;;4999740;23;20253;-96
2023/12/09 06:55:42;;;;;;;19.13;1.05;;;8.50;99.90;;;;;;4976948;23;20264;-94
2023/12/09 06:57:47;;;;;;;7.85;1.70;;;8.50;99.90;;;;;;5023904;23;20147;-95
2023/12/09 06:59:52;;;;;;;6.93;0.82;;;8.40;99.90;;;;;;5022892;23;20163;-94
2023/12/09 07:01:59;;;;;;;1.15;0.63;;;8.40;99.90;;;;;;4999336;23;20170;-95
2023/12/09 07:04:14;;;;;;;11.40;3.15;;;8.30;99.90;;;;;;5001306;23;20186;-96
2023/12/09 07:06:26;;;;;;;4.53;0.88;;;8.40;99.90;;;;;;4976558;23;20159;-96
2023/12/09 07:08:27;;;;;;;6.43;1.35;;;8.50;99.90;;;;;;5001760;23;20207;-95
2023/12/09 07:10:40;;;;;;;8.63;1.42;;;8.50;99.90;;;;;;5000854;23;20214;-94
2023/12/09 07:12:53;;;;;;;6.18;1.35;;;8.40;99.90;;;;;;4977757;23;20156;-94
2023/12/09 07:14:54;;;;;;;10.50;2.08;;;8.40;99.90;;;;;;4956551;23;20180;-94
2023/12/09 07:17:00;;;;;;;4.75;1.65;;;8.50;99.90;;;;;;5001583;23;20155;-96
2023/12/09 07:19:01;;;;;;;6.85;0.80;;;8.50;99.90;;;;;;4977059;23;20206;-96
2023/12/09 07:21:17;;;;;;;;;;;;;;;;;;;;;
2023/12/09 07:23:18;;;;;;;9.07;1.70;;;8.80;99.90;;;;;;4999540;23;20154;-94
2023/12/09 07:25:20;;;;;;;4.90;2.25;;;8.70;99.90;;;;;;4977999;23;20176;-95
2023/12/09 07:27:20;;;;;;;6.38;0.93;;;8.80;99.90;;;;;;4999055;23;20231;-94
2023/12/09 07:29:25;;;;;;;0.60;0.47;;;8.80;99.90;;;;;;4975825;23;20658;-96
2023/12/09 07:31:49;;;;;;;16.70;2.30;;;8.60;99.90;;;;;;5002310;23;20187;-95
2023/12/09 07:33:58;;;;;;;10.00;1.23;;;8.70;99.90;;;;;;5001930;23;20156;-95
2023/12/09 07:36:02;;;;;;;0.25;0.15;;;8.60;99.90;;;;;;4979182;23;20156;-96
2023/12/09 07:38:03;;;;;;;12.15;1.58;;;8.60;99.90;;;;;;4978235;23;20235;-94
2023/12/09 07:40:11;;;;;;;10.32;1.70;;;8.70;99.90;;;;;;4978276;23;20153;-96
2023/12/09 07:42:31;;;;;;;9.15;1.35;;;8.70;99.90;;;;;;5002521;23;20156;-94
2023/12/09 07:44:34;;;;;;;6.35;1.02;;;8.80;99.90;;;;;;4987629;23;20186;-96
2023/12/09 07:46:35;;;;;;;8.00;1.13;;;8.80;99.90;;;;;;4995607;23;20144;-94
2023/12/09 07:48:39;;;;;;;3.15;0.65;;;8.90;99.90;;;;;;4996749;23;20149;-95
2023/12/09 07:50:47;;;;;;;4.53;1.15;;;8.90;99.90;;;;;;5001618;23;20187;-95
2023/12/09 07:52:55;;;;;;;10.82;2.50;;;8.80;99.90;;;;;;4978670;23;20231;-94
2023/12/09 07:54:56;;;;;;;4.75;1.05;;;8.90;99.90;;;;;;5001913;23;20183;-96
2023/12/09 07:56:58;;;;;;;11.40;0.90;;;8.90;99.90;;;;;;5028379;23;20191;-96
2023/12/09 07:59:04;;;;;;;0.52;0.38;;;8.90;99.90;;;;;;4977747;23;20160;-94
2023/12/09 08:01:05;;;;;;;6.22;1.13;;;9.00;99.90;;;;;;4977181;23;20171;-95
2023/12/09 08:03:06;;;;;;;11.85;1.02;;;9.10;99.90;;;;;;5000226;23;20205;-95
2023/12/09 08:05:10;;;;;;;4.93;1.35;;;9.10;99.90;;;;;;4979181;23;20172;-93
2023/12/09 08:07:11;;;;;;;7.60;1.33;;;9.20;99.90;;;;;;4978788;23;20237;-94
2023/12/09 08:09:12;;;;;;;5.88;1.30;;;9.00;99.90;;;;;;4978731;23;20148;-93
2023/12/09 08:11:18;;;;;;;10.00;1.67;;;9.00;99.90;;;;;;4999989;23;20692;-95
2023/12/09 08:13:22;;;;;;;7.53;1.55;;;8.90;99.90;;;;;;5001514;23;20611;-96
2023/12/09 08:15:23;;;;;;;5.93;1.90;;;9.00;99.90;;;;;;5001350;23;20730;-96
2023/12/09 08:17:27;;;;;;;10.50;1.38;;;9.00;99.90;;;;;;4978211;23;20157;-94
2023/12/09 08:19:31;;;;;;;5.75;1.00;;;8.90;99.90;;;;;;5001919;23;20592;-95
2023/12/09 08:21:38;;;;;;;13.38;1.30;;;9.00;99.90;;;;;;4978897;23;20201;-96
2023/12/09 08:23:42;;;;;;;1.10;0.38;;;9.00;99.90;;;;;;5002781;23;20219;-95
2023/12/09 08:25:43;;;;;;;2.13;0.90;;;9.00;99.90;;;;;;5000688;23;20179;-95
2023/12/09 08:27:49;;;;;;;13.57;1.73;;;9.00;99.90;;;;;;4978117;23;20184;-94
2023/12/09 08:29:54;;;;;;;3.60;1.15;;;9.00;99.90;;;;;;5003531;23;20208;-93
2023/12/09 08:31:58;;;;;;;16.38;1.33;;;9.00;99.90;;;;;;5005324;23;20632;-94
2023/12/09 08:34:01;;;;;;;4.03;0.63;;;9.10;99.90;;;;;;5006493;23;20174;-96
2023/12/09 08:36:03;;;;;;;8.43;1.58;;;9.00;99.90;;;;;;5006732;23;20160;-95
2023/12/09 08:38:05;;;;;;;10.50;1.95;;;9.10;99.90;;;;;;5005922;23;20152;-94
2023/12/09 08:40:21;;;;;;;1.08;0.57;;;9.10;99.90;;;;;;4979410;23;20164;-96
2023/12/09 08:42:25;;;;;;;5.43;0.80;;;9.10;99.90;;;;;;4981453;23;20152;-96
2023/12/09 08:44:27;;;;;;;6.65;1.58;;;9.10;99.90;;;;;;4993357;23;20176;-95
2023/12/09 08:46:28;;;;;;;5.95;1.00;;;9.20;99.90;;;;;;5005920;23;20152;-94
2023/12/09 08:48:29;;;;;;;5.75;0.60;;;9.40;99.90;;;;;;4982854;23;20294;-95
2023/12/09 08:50:30;;;;;;;3.70;0.63;;;9.30;99.90;;;;;;4980516;23;20192;-95
2023/12/09 08:52:32;;;;;;;6.55;1.05;;;9.30;99.90;;;;;;5004501;23;20226;-96
2023/12/09 08:54:34;;;;;;;6.03;1.52;;;9.20;99.90;;;;;;4962215;24;20262;-95
2023/12/09 08:56:37;;;;;;;5.90;1.58;;;9.20;99.90;;;;;;4985952;23;20163;-95
2023/12/09 08:58:39;;;;;;;7.72;0.80;;;9.20;99.90;;;;;;5005135;23;20575;-94
2023/12/09 09:00:45;;;;;;;0.63;0.38;;;9.20;99.90;;;;;;4982058;23;20164;-96
2023/12/09 09:02:49;;;;;;;1.27;0.85;;;9.30;99.90;;;;;;5010048;23;20164;-94
2023/12/09 09:05:03;;;;;;;9.60;1.30;;;9.30;99.90;;;;;;4988587;23;20180;-94
2023/12/09 09:07:10;;;;;;;4.80;0.73;;;9.40;99.90;;;;;;4989559;23;20144;-95
2023/12/09 09:09:18;;;;;;;1.40;0.45;;;9.20;99.90;;;;;;5012614;23;20146;-95
2023/12/09 09:11:20;;;;;;;7.13;0.95;;;9.20;99.90;;;;;;4989081;23;20195;-95
2023/12/09 09:13:24;;;;;;;1.55;0.43;;;9.20;99.90;;;;;;5010843;23;20163;-95
2023/12/09 09:15:27;;;;;;;2.42;1.02;;;9.10;99.90;;;;;;5026984;23;20226;-96
2023/12/09 09:17:35;;;;;;;3.97;1.15;;;9.00;99.90;;;;;;4985302;23;20224;-95
2023/12/09 09:19:46;;;;;;;0.45;0.10;;;9.00;99.90;;;;;;5007596;23;20139;-95
2023/12/09 09:22:11;;;;;;;4.05;0.57;;;8.90;99.90;;;;;;4986213;23;20160;-96
2023/12/09 09:24:17;;;;;;;2.40;0.55;;;9.00;99.90;;;;;;5032495;23;20142;-95
2023/12/09 09:26:24;;;;;;;0.40;0.30;;;9.10;99.90;;;;;;5012279;23;20168;-95
2023/12/09 09:28:36;;;;;;;1.33;0.52;;;9.10;99.90;;;;;;5020195;23;20172;-96
2023/12/09 09:30:37;;;;;;;0.25;0.10;;;9.00;99.90;;;;;;4986744;23;20190;-96
2023/12/09 09:32:38;;;;;;;4.05;0.73;;;9.10;99.90;;;;;;5007081;23;20159;-95
2023/12/09 09:35:03;;;;;;;1.08;0.30;;;9.10;99.90;;;;;;5008062;23;20175;-96
2023/12/09 09:37:08;;;;;;;0.30;0.25;;;9.10;99.90;;;;;;4987949;23;20157;-96
2023/12/09 09:39:12;;;;;;;0.68;0.45;;;9.00;99.90;;;;;;5006011;23;20207;-96
2023/12/09 09:41:33;;;;;;;1.33;0.30;;;9.10;99.90;;;;;;5032797;23;20183;-96
2023/12/09 09:43:48;;;;;;;3.38;0.60;;;9.30;99.90;;;;;;5010290;23;20219;-96
2023/12/09 09:46:16;;;;;;;3.53;0.43;;;9.20;99.90;;;;;;5033431;23;20203;-96
2023/12/09 09:48:47;;;;;;;5.15;0.47;;;9.30;99.90;;;;;;5008842;23;20156;-95
2023/12/09 09:51:11;;;;;;;0.28;0.15;;;9.20;99.90;;;;;;5012194;23;20183;-96
2023/12/09 09:53:46;;;;;;;0.40;0.20;;;9.20;99.90;;;;;;5034933;23;20234;-95
2023/12/09 09:56:13;;;;;;;0.40;0.20;;;9.20;99.90;;;;;;5018997;23;20166;-95
2023/12/09 09:58:20;;;;;;;3.45;0.50;;;9.10;99.90;;;;;;4992568;23;20196;-96
2023/12/09 10:00:28;;;;;;;3.13;0.63;;;9.20;99.90;;;;;;4985878;23;20164;-95
2023/12/09 10:02:47;;;;;;;1.52;0.52;;;9.30;99.90;;;;;;4982237;23;20483;-96
2023/12/09 10:04:59;;;;;;;0.50;0.20;;;9.40;99.90;;;;;;5016420;23;20253;-94
2023/12/09 10:07:04;;;;;;;0.08;0.08;;;9.50;99.90;;;;;;5033956;23;20159;-95
2023/12/09 10:09:05;;;;;;;5.32;0.47;;;9.40;99.90;;;;;;5006777;23;20159;-94
2023/12/09 10:11:20;;;;;;;1.35;0.68;;;9.40;99.90;;;;;;5060016;23;20249;-94
2023/12/09 10:13:25;;;;;;;3.85;0.40;;;9.40;99.90;;;;;;5015399;23;20144;-95
2023/12/09 10:15:26;;;;;;;0.52;0.17;;;9.50;99.90;;;;;;5019507;23;20166;-95
2023/12/09 10:17:28;;;;;;;0.63;0.47;;;9.40;99.90;;;;;;5041114;23;20159;-93
2023/12/09 10:19:34;;;;;;;2.17;0.30;;;9.50;99.90;;;;;;5008258;23;20158;-94
2023/12/09 10:21:39;;;;;;;0.20;0.10;;;9.60;99.90;;;;;;5031276;23;20342;-96
2023/12/09 10:23:51;;;;;;;0.50;0.20;;;9.60;99.90;;;;;;5027171;23;20151;-96
2023/12/09 10:25:53;;;;;;;0.38;0.20;;;9.70;99.90;;;;;;5000803;23;20159;-93
2023/12/09 10:27:56;;;;;;;0.22;0.10;;;9.60;99.90;;;;;;5003770;23;20599;-95
2023/12/09 10:29:58;;;;;;;1.15;0.30;;;9.50;99.90;;;;;;5029636;23;20154;-95
2023/12/09 10:32:05;;;;;;;1.25;0.28;;;9.40;99.90;;;;;;5003858;23;20191;-94
2023/12/09 10:34:10;;;;;;;4.80;0.63;;;9.50;99.90;;;;;;5002631;23;20172;-96
2023/12/09 10:36:14;;;;;;;0.98;0.25;;;9.40;99.90;;;;;;5003435;23;20151;-96
2023/12/09 10:38:18;;;;;;;2.55;0.47;;;9.40;99.90;;;;;;5006675;23;20234;-96
2023/12/09 10:40:19;;;;;;;0.85;0.20;;;9.40;99.90;;;;;;5027972;23;20158;-95
2023/12/09 10:42:22;;;;;;;1.77;0.10;;;9.60;99.90;;;;;;5003240;23;20183;-94
2023/12/09 10:44:27;;;;;;;0.80;0.10;;;9.60;99.90;;;;;;5027314;23;20259;-93
2023/12/09 10:46:28;;;;;;;0.20;0.10;;;9.60;99.90;;;;;;5004221;23;20176;-93
2023/12/09 10:48:31;;;;;;;0.30;0.10;;;9.70;99.90;;;;;;5003609;23;20575;-96
2023/12/09 10:50:39;;;;;;;0.32;0.10;;;9.70;99.90;;;;;;5001709;23;20163;-95
2023/12/09 10:52:43;;;;;;;1.45;0.30;;;9.80;99.90;;;;;;5029183;23;20154;-95
2023/12/09 10:54:46;;;;;;;0.00;0.00;;;9.70;99.90;;;;;;5004092;23;20275;-96
2023/12/09 10:56:56;;;;;;;0.95;0.30;;;9.70;99.90;;;;;;5054468;23;20624;-94
2023/12/09 10:58:59;;;;;;;1.55;0.25;;;9.70;99.90;;;;;;5027209;23;20610;-94
2023/12/09 11:01:01;;;;;;;0.13;0.10;;;9.70;99.90;;;;;;5004104;23;20179;-94
2023/12/09 11:03:06;;;;;;;0.65;0.20;;;9.60;99.90;;;;;;5002420;23;20159;-94
2023/12/09 11:05:09;;;;;;;1.58;0.28;;;9.70;99.90;;;;;;5005226;23;20258;-96
2023/12/09 11:07:13;;;;;;;0.47;0.30;;;9.50;99.90;;;;;;5033998;23;20161;-95
2023/12/09 11:09:21;;;;;;;0.40;0.20;;;9.50;99.90;;;;;;5006881;23;20160;-95
2023/12/09 11:11:29;;;;;;;1.88;0.45;;;9.50;99.90;;;;;;5003916;23;20231;-96